Time;durP1;ratioP1;P1;durP2;ratioP2;P2;SDS_P1;SDS_P2;PMS_P1;PMS_P2;Temp;Humidity;BMP_temperature;BMP_pressure;BME280_temperature;BME280_humidity;BME280_pressure;Samples;Min_cycle;Max_cycle;Signal;HPM_P1;HPM_P2
2021/11/13 00:00:30;;;;;;;77.43;41.38;;;;;;;;;;5028329;28;20083;-47
2021/11/13 00:02:56;;;;;;;87.60;47.20;;;;;;;;;;5027988;28;20029;-48
2021/11/13 00:05:25;;;;;;;90.38;46.33;;;;;;;;;;5028473;28;20021;-47
2021/11/13 00:07:52;;;;;;;90.32;48.22;;;;;;;;;;5028631;28;20029;-47
2021/11/13 00:10:26;;;;;;;102.97;54.08;;;;;;;;;;5028032;28;20034;-48
2021/11/13 00:12:54;;;;;;;82.53;42.65;;;;;;;;;;5030301;28;20017;-47
2021/11/13 00:15:22;;;;;;;88.70;46.28;;;;;;;;;;5028095;28;20029;-47
2021/11/13 00:17:49;;;;;;;79.43;41.42;;;;;;;;;;5027126;28;20461;-47
2021/11/13 00:20:15;;;;;;;95.82;49.97;;;;;;;;;;5029045;28;20073;-47
2021/11/13 00:22:41;;;;;;;75.03;40.83;;;;;;;;;;5030602;28;20469;-47
2021/11/13 00:25:07;;;;;;;116.38;61.85;;;;;;;;;;5033493;28;20095;-47
2021/11/13 00:27:34;;;;;;;90.00;46.45;;;;;;;;;;5033524;28;20021;-47
2021/11/13 00:30:00;;;;;;;86.93;45.65;;;;;;;;;;5030340;28;20020;-47
2021/11/13 00:32:26;;;;;;;76.82;41.83;;;;;;;;;;5031474;28;20485;-47
2021/11/13 00:34:52;;;;;;;94.38;50.75;;;;;;;;;;5032495;28;20045;-48
2021/11/13 00:37:18;;;;;;;75.43;40.17;;;;;;;;;;5032448;28;20045;-48
2021/11/13 00:39:45;;;;;;;85.00;43.35;;;;;;;;;;5031982;28;20682;-47
2021/11/13 00:42:11;;;;;;;75.63;42.08;;;;;;;;;;5033503;28;20040;-48
2021/11/13 00:44:37;;;;;;;87.40;44.97;;;;;;;;;;5032077;28;20090;-48
2021/11/13 00:47:04;;;;;;;77.63;41.90;;;;;;;;;;5031990;28;20024;-48
2021/11/13 00:49:30;;;;;;;79.25;41.00;;;;;;;;;;5033048;28;20044;-48
2021/11/13 00:51:56;;;;;;;109.00;55.58;;;;;;;;;;5031095;28;20064;-49
2021/11/13 00:54:22;;;;;;;83.75;43.40;;;;;;;;;;5032644;28;20124;-48
2021/11/13 00:56:49;;;;;;;71.63;37.88;;;;;;;;;;5029609;28;20048;-48
2021/11/13 00:59:16;;;;;;;71.28;38.13;;;;;;;;;;5037833;28;20029;-51
2021/11/13 01:01:42;;;;;;;67.68;35.20;;;;;;;;;;5056325;28;20036;-53
2021/11/13 01:04:09;;;;;;;58.88;31.60;;;;;;;;;;5056070;28;20472;-49
2021/11/13 01:06:35;;;;;;;93.63;48.58;;;;;;;;;;5056186;28;20029;-49
2021/11/13 01:09:03;;;;;;;75.10;41.08;;;;;;;;;;5055975;28;20024;-50
2021/11/13 01:11:30;;;;;;;64.78;34.30;;;;;;;;;;5055956;28;20116;-48
2021/11/13 01:13:57;;;;;;;83.30;42.38;;;;;;;;;;5056023;28;20032;-50
2021/11/13 01:16:26;;;;;;;78.78;41.67;;;;;;;;;;5055796;28;20369;-50
2021/11/13 01:18:52;;;;;;;69.50;37.38;;;;;;;;;;5055834;28;20027;-50
2021/11/13 01:21:18;;;;;;;74.75;40.90;;;;;;;;;;5055756;28;20021;-50
2021/11/13 01:23:47;;;;;;;62.25;34.63;;;;;;;;;;5055644;28;20040;-51
2021/11/13 01:26:13;;;;;;;78.10;41.88;;;;;;;;;;5055812;28;20028;-49
2021/11/13 01:28:39;;;;;;;98.07;51.80;;;;;;;;;;5055729;28;20476;-49
2021/11/13 01:31:08;;;;;;;65.82;34.60;;;;;;;;;;5054948;28;20025;-50
2021/11/13 01:33:38;;;;;;;70.35;35.05;;;;;;;;;;5055627;28;20025;-51
2021/11/13 01:36:07;;;;;;;73.20;40.35;;;;;;;;;;5055565;28;20021;-49
2021/11/13 01:38:34;;;;;;;71.35;38.53;;;;;;;;;;5055434;28;20064;-50
2021/11/13 01:41:01;;;;;;;64.10;36.00;;;;;;;;;;5055568;28;20384;-50
2021/11/13 01:43:27;;;;;;;88.60;45.28;;;;;;;;;;5055492;28;20017;-50
2021/11/13 01:45:53;;;;;;;71.25;38.33;;;;;;;;;;5055317;28;20048;-52
2021/11/13 01:48:19;;;;;;;76.28;40.78;;;;;;;;;;5055302;28;20021;-49
2021/11/13 01:50:47;;;;;;;75.72;41.10;;;;;;;;;;5054982;28;20106;-50
2021/11/13 01:53:15;;;;;;;86.40;45.00;;;;;;;;;;5055155;28;20044;-50
2021/11/13 01:55:44;;;;;;;85.68;44.55;;;;;;;;;;5055250;28;20021;-49
2021/11/13 01:58:12;;;;;;;81.90;42.40;;;;;;;;;;5053726;28;20462;-49
2021/11/13 02:00:39;;;;;;;76.60;40.25;;;;;;;;;;5055190;28;20029;-49
2021/11/13 02:03:05;;;;;;;87.22;45.10;;;;;;;;;;5054988;28;20052;-49
2021/11/13 02:05:32;;;;;;;88.13;45.22;;;;;;;;;;5055112;28;20025;-49
2021/11/13 02:07:58;;;;;;;79.95;42.75;;;;;;;;;;5055025;28;20048;-49
2021/11/13 02:10:25;;;;;;;90.90;44.83;;;;;;;;;;5054855;28;20025;-48
2021/11/13 02:12:52;;;;;;;80.00;40.38;;;;;;;;;;5054928;28;20104;-53
2021/11/13 02:15:18;;;;;;;78.40;37.88;;;;;;;;;;5053504;28;20393;-50
2021/11/13 02:17:45;;;;;;;93.43;50.08;;;;;;;;;;5054801;28;20040;-49
2021/11/13 02:20:21;;;;;;;96.05;50.40;;;;;;;;;;5054643;28;20021;-50
2021/11/13 02:22:50;;;;;;;87.03;47.17;;;;;;;;;;5054786;28;20033;-50
2021/11/13 02:25:17;;;;;;;84.45;46.33;;;;;;;;;;5054692;28;20480;-49
2021/11/13 02:27:43;;;;;;;71.70;36.47;;;;;;;;;;5054572;28;20024;-49
2021/11/13 02:30:10;;;;;;;75.00;39.33;;;;;;;;;;5054442;28;20021;-49
2021/11/13 02:32:36;;;;;;;75.82;38.33;;;;;;;;;;5054430;28;20441;-49
2021/11/13 02:35:03;;;;;;;91.85;47.40;;;;;;;;;;5054483;28;20044;-51
2021/11/13 02:37:32;;;;;;;80.20;41.67;;;;;;;;;;5054294;28;20033;-51
2021/11/13 02:39:58;;;;;;;82.07;43.20;;;;;;;;;;5054400;28;20091;-49
2021/11/13 02:42:25;;;;;;;71.70;38.47;;;;;;;;;;5053439;28;20063;-50
2021/11/13 02:44:51;;;;;;;72.82;38.35;;;;;;;;;;5054021;28;20024;-51
2021/11/13 02:47:18;;;;;;;69.38;38.10;;;;;;;;;;5054171;28;20029;-51
2021/11/13 02:49:49;;;;;;;77.47;40.00;;;;;;;;;;5053703;28;20021;-51
2021/11/13 02:52:15;;;;;;;87.15;44.75;;;;;;;;;;5054141;28;20504;-50
2021/11/13 02:54:44;;;;;;;77.28;43.17;;;;;;;;;;5054211;28;20025;-51
2021/11/13 02:57:11;;;;;;;81.60;44.92;;;;;;;;;;5054084;28;20433;-50
2021/11/13 02:59:47;;;;;;;77.80;42.00;;;;;;;;;;5053981;28;20028;-50
2021/11/13 03:02:13;;;;;;;84.65;46.15;;;;;;;;;;5054367;28;20024;-50
2021/11/13 03:04:40;;;;;;;74.75;41.70;;;;;;;;;;5054167;28;20033;-50
2021/11/13 03:07:07;;;;;;;77.47;39.83;;;;;;;;;;5053967;28;20025;-50
2021/11/13 03:09:33;;;;;;;89.20;44.63;;;;;;;;;;5053882;28;20345;-50
2021/11/13 03:12:00;;;;;;;76.90;41.50;;;;;;;;;;5053927;28;20029;-49
2021/11/13 03:14:26;;;;;;;88.30;46.47;;;;;;;;;;5053719;28;20029;-50
2021/11/13 03:16:52;;;;;;;86.95;45.13;;;;;;;;;;5053721;28;20037;-50
2021/11/13 03:19:19;;;;;;;80.50;44.13;;;;;;;;;;5053897;28;20047;-49
2021/11/13 03:21:45;;;;;;;89.93;47.58;;;;;;;;;;5053558;28;20021;-49
2021/11/13 03:24:14;;;;;;;84.40;44.28;;;;;;;;;;5053650;28;20037;-50
2021/11/13 03:26:41;;;;;;;94.70;49.83;;;;;;;;;;5053512;28;20028;-50
2021/11/13 03:29:12;;;;;;;87.65;45.17;;;;;;;;;;5053522;28;20032;-54
2021/11/13 03:31:38;;;;;;;100.32;48.75;;;;;;;;;;5052147;28;20029;-54
2021/11/13 03:34:05;;;;;;;83.65;43.15;;;;;;;;;;5053447;28;20082;-50
2021/11/13 03:36:33;;;;;;;80.35;42.75;;;;;;;;;;5053357;28;20017;-51
2021/11/13 03:38:59;;;;;;;90.28;44.72;;;;;;;;;;5053427;28;20033;-50
2021/11/13 03:41:25;;;;;;;93.70;47.38;;;;;;;;;;5052180;28;20354;-50
2021/11/13 03:43:51;;;;;;;92.95;48.90;;;;;;;;;;5053163;28;20021;-49
2021/11/13 03:46:17;;;;;;;96.97;50.05;;;;;;;;;;5053268;28;20373;-50
2021/11/13 03:48:45;;;;;;;99.28;50.67;;;;;;;;;;5053392;28;20021;-50
2021/11/13 03:51:12;;;;;;;99.00;49.42;;;;;;;;;;5053036;28;20103;-49
2021/11/13 03:53:38;;;;;;;117.25;57.05;;;;;;;;;;5052914;28;20025;-51
2021/11/13 03:56:04;;;;;;;104.78;54.10;;;;;;;;;;5053361;28;20073;-50
2021/11/13 03:58:30;;;;;;;100.68;49.22;;;;;;;;;;5053140;28;20439;-50
2021/11/13 04:00:56;;;;;;;98.38;49.50;;;;;;;;;;5053181;28;20021;-50
2021/11/13 04:03:23;;;;;;;87.28;46.25;;;;;;;;;;5053251;28;20086;-50
2021/11/13 04:05:49;;;;;;;88.40;47.30;;;;;;;;;;5053241;28;20581;-50
2021/11/13 04:08:15;;;;;;;83.90;44.95;;;;;;;;;;5053054;28;20021;-50
2021/11/13 04:10:42;;;;;;;80.50;41.95;;;;;;;;;;5053321;28;20017;-51
2021/11/13 04:13:08;;;;;;;90.22;45.55;;;;;;;;;;5052999;28;20125;-50
2021/11/13 04:15:34;;;;;;;95.35;48.90;;;;;;;;;;5053277;28;20053;-50
2021/11/13 04:18:01;;;;;;;111.85;54.03;;;;;;;;;;5052947;28;20033;-50
2021/11/13 04:20:27;;;;;;;90.68;45.90;;;;;;;;;;5052815;28;20470;-50
2021/11/13 04:22:53;;;;;;;97.88;50.83;;;;;;;;;;5053093;28;20044;-50
2021/11/13 04:25:20;;;;;;;109.07;55.88;;;;;;;;;;5052868;28;20017;-49
2021/11/13 04:27:47;;;;;;;83.22;43.30;;;;;;;;;;5052916;28;20094;-49
2021/11/13 04:30:13;;;;;;;81.97;44.08;;;;;;;;;;5052945;28;20021;-50
2021/11/13 04:32:44;;;;;;;84.03;43.97;;;;;;;;;;5052961;28;20033;-49
2021/11/13 04:35:22;;;;;;;89.25;45.58;;;;;;;;;;5053158;28;20023;-49
2021/11/13 04:37:50;;;;;;;82.63;42.10;;;;;;;;;;5052839;28;20040;-49
2021/11/13 04:40:17;;;;;;;80.28;41.90;;;;;;;;;;5052621;28;20032;-54
2021/11/13 04:42:43;;;;;;;89.15;48.75;;;;;;;;;;5052805;28;20029;-55
2021/11/13 04:45:12;;;;;;;83.25;41.88;;;;;;;;;;5052680;28;20032;-55
2021/11/13 04:47:39;;;;;;;92.13;47.20;;;;;;;;;;5052708;28;20021;-49
2021/11/13 04:50:06;;;;;;;84.38;41.88;;;;;;;;;;5052616;28;20408;-53
2021/11/13 04:52:32;;;;;;;91.13;44.10;;;;;;;;;;5052734;28;20400;-54
2021/11/13 04:55:02;;;;;;;93.00;46.33;;;;;;;;;;5052534;28;20021;-55
2021/11/13 04:57:29;;;;;;;99.05;46.45;;;;;;;;;;5052475;28;20111;-50
2021/11/13 04:59:55;;;;;;;89.43;44.97;;;;;;;;;;5052815;28;20118;-49
2021/11/13 05:02:21;;;;;;;91.28;45.97;;;;;;;;;;5052481;28;20526;-50
2021/11/13 05:04:53;;;;;;;92.40;46.78;;;;;;;;;;5052723;28;20025;-50
2021/11/13 05:07:19;;;;;;;79.30;40.50;;;;;;;;;;5055319;28;20029;-51
2021/11/13 05:09:45;;;;;;;89.18;45.25;;;;;;;;;;5056077;28;20041;-51
2021/11/13 05:12:11;;;;;;;89.18;45.10;;;;;;;;;;5056291;28;20029;-50
2021/11/13 05:14:40;;;;;;;83.82;43.42;;;;;;;;;;5056058;28;20167;-50
2021/11/13 05:17:06;;;;;;;88.57;44.50;;;;;;;;;;5055978;28;20510;-50
2021/11/13 05:19:32;;;;;;;85.28;43.00;;;;;;;;;;5055934;28;20385;-50
2021/11/13 05:21:58;;;;;;;74.22;38.72;;;;;;;;;;5056014;28;20392;-50
2021/11/13 05:24:25;;;;;;;75.10;37.30;;;;;;;;;;5055824;28;20490;-50
2021/11/13 05:26:51;;;;;;;80.07;42.08;;;;;;;;;;5055816;28;20035;-49
2021/11/13 05:29:17;;;;;;;89.80;44.17;;;;;;;;;;5056069;28;20025;-50
2021/11/13 05:31:43;;;;;;;77.38;38.03;;;;;;;;;;5055762;28;20044;-56
2021/11/13 05:34:09;;;;;;;88.40;42.05;;;;;;;;;;5055969;28;20025;-50
2021/11/13 05:36:35;;;;;;;83.88;42.45;;;;;;;;;;5055570;28;20030;-56
2021/11/13 05:39:01;;;;;;;81.72;42.15;;;;;;;;;;5055714;28;20028;-52
2021/11/13 05:41:27;;;;;;;90.75;44.70;;;;;;;;;;5055634;28;20025;-55
2021/11/13 05:43:54;;;;;;;86.38;43.28;;;;;;;;;;5055576;28;20032;-50
2021/11/13 05:46:21;;;;;;;85.53;41.40;;;;;;;;;;5055502;28;20024;-49
2021/11/13 05:48:47;;;;;;;85.22;41.97;;;;;;;;;;5055421;28;20017;-49
2021/11/13 05:51:13;;;;;;;85.82;41.33;;;;;;;;;;5055067;28;20053;-51
2021/11/13 05:53:39;;;;;;;94.28;45.95;;;;;;;;;;5055480;28;20501;-50
2021/11/13 05:56:05;;;;;;;92.13;44.25;;;;;;;;;;5055136;28;20029;-50
2021/11/13 05:58:31;;;;;;;73.32;35.10;;;;;;;;;;5054075;28;20374;-48
2021/11/13 06:00:57;;;;;;;81.05;37.00;;;;;;;;;;5055622;28;20105;-50
2021/11/13 06:03:24;;;;;;;88.72;41.95;;;;;;;;;;5055187;28;20032;-48
2021/11/13 06:05:52;;;;;;;87.43;42.63;;;;;;;;;;5055254;28;20025;-54
2021/11/13 06:08:18;;;;;;;92.90;44.70;;;;;;;;;;5055105;28;20461;-50
2021/11/13 06:10:45;;;;;;;86.10;39.47;;;;;;;;;;5054899;28;20059;-49
2021/11/13 06:13:11;;;;;;;95.20;45.38;;;;;;;;;;5055003;28;20025;-48
2021/11/13 06:15:37;;;;;;;81.22;39.28;;;;;;;;;;5055160;28;20021;-49
2021/11/13 06:18:03;;;;;;;86.10;41.25;;;;;;;;;;5054695;28;20037;-51
2021/11/13 06:20:30;;;;;;;82.25;39.80;;;;;;;;;;5054719;28;20505;-50
2021/11/13 06:22:57;;;;;;;81.70;39.92;;;;;;;;;;5054839;28;20028;-48
2021/11/13 06:25:23;;;;;;;84.22;39.65;;;;;;;;;;5054760;28;20032;-48
2021/11/13 06:27:49;;;;;;;81.95;38.22;;;;;;;;;;5054878;28;20485;-49
2021/11/13 06:30:16;;;;;;;82.32;38.75;;;;;;;;;;5054734;28;20060;-51
2021/11/13 06:32:45;;;;;;;77.13;37.92;;;;;;;;;;5054465;28;20078;-51
2021/11/13 06:35:12;;;;;;;81.57;43.25;;;;;;;;;;5054886;28;20439;-55
2021/11/13 06:37:39;;;;;;;86.75;43.33;;;;;;;;;;5054622;28;20491;-51
2021/11/13 06:40:06;;;;;;;82.93;40.20;;;;;;;;;;5054430;28;20028;-50
2021/11/13 06:42:33;;;;;;;83.07;40.05;;;;;;;;;;5054522;28;20104;-49
2021/11/13 06:44:59;;;;;;;75.88;37.28;;;;;;;;;;5054393;28;20020;-51
2021/11/13 06:47:25;;;;;;;83.07;39.40;;;;;;;;;;5054430;28;20017;-49
2021/11/13 06:49:51;;;;;;;86.35;43.30;;;;;;;;;;5053939;28;20025;-48
2021/11/13 06:52:20;;;;;;;95.20;45.55;;;;;;;;;;5054238;28;20027;-52
2021/11/13 06:54:46;;;;;;;95.57;48.63;;;;;;;;;;5054179;28;20025;-51
2021/11/13 06:57:13;;;;;;;101.60;47.67;;;;;;;;;;5053946;28;20028;-51
2021/11/13 06:59:39;;;;;;;111.60;52.20;;;;;;;;;;5054238;28;20029;-53
2021/11/13 07:02:10;;;;;;;104.05;49.22;;;;;;;;;;5054430;28;20028;-50
2021/11/13 07:04:36;;;;;;;106.87;50.13;;;;;;;;;;5054072;28;20024;-51
2021/11/13 07:07:02;;;;;;;106.13;51.30;;;;;;;;;;5053848;28;20262;-51
2021/11/13 07:09:28;;;;;;;98.95;49.10;;;;;;;;;;5053863;28;20031;-50
2021/11/13 07:11:55;;;;;;;96.78;50.80;;;;;;;;;;5053874;28;20021;-49
2021/11/13 07:14:21;;;;;;;101.15;51.95;;;;;;;;;;5053900;28;20028;-50
2021/11/13 07:16:47;;;;;;;107.60;51.28;;;;;;;;;;5053994;28;20429;-50
2021/11/13 07:19:13;;;;;;;100.70;51.42;;;;;;;;;;5053780;28;20078;-50
2021/11/13 07:21:40;;;;;;;104.72;48.83;;;;;;;;;;5053491;28;20032;-50
2021/11/13 07:24:07;;;;;;;111.88;53.53;;;;;;;;;;5053651;28;20166;-54
2021/11/13 07:26:33;;;;;;;111.75;54.05;;;;;;;;;;5053355;28;20029;-51
2021/11/13 07:29:04;;;;;;;108.22;52.60;;;;;;;;;;5053228;28;20025;-54
2021/11/13 07:31:30;;;;;;;108.30;52.78;;;;;;;;;;5053580;28;20021;-50
2021/11/13 07:33:57;;;;;;;116.03;55.15;;;;;;;;;;5053523;28;20030;-53
2021/11/13 07:36:23;;;;;;;123.07;56.38;;;;;;;;;;5053535;28;20039;-52
2021/11/13 07:38:49;;;;;;;124.20;59.53;;;;;;;;;;5053357;28;20033;-50
2021/11/13 07:41:18;;;;;;;132.90;59.88;;;;;;;;;;5053326;28;20028;-51
2021/11/13 07:43:44;;;;;;;130.25;62.00;;;;;;;;;;5053299;28;20025;-50
2021/11/13 07:46:11;;;;;;;123.10;57.42;;;;;;;;;;5053242;28;20393;-50
2021/11/13 07:48:37;;;;;;;124.70;60.53;;;;;;;;;;5053234;28;20473;-50
2021/11/13 07:51:07;;;;;;;143.18;62.60;;;;;;;;;;5052997;28;20049;-50
2021/11/13 07:53:33;;;;;;;147.07;70.18;;;;;;;;;;5053265;28;20107;-49
2021/11/13 07:55:59;;;;;;;117.50;53.95;;;;;;;;;;5052976;28;20031;-49
2021/11/13 07:58:28;;;;;;;123.05;57.67;;;;;;;;;;5053014;28;20025;-50
2021/11/13 08:00:55;;;;;;;139.07;62.88;;;;;;;;;;5053097;28;20024;-49
2021/11/13 08:03:26;;;;;;;129.38;60.10;;;;;;;;;;5053035;28;20020;-51
2021/11/13 08:05:52;;;;;;;132.98;60.20;;;;;;;;;;5053049;28;20462;-50
2021/11/13 08:08:18;;;;;;;143.05;65.47;;;;;;;;;;5052933;28;20035;-54
2021/11/13 08:10:46;;;;;;;108.70;52.28;;;;;;;;;;5052886;28;20096;-50
2021/11/13 08:13:13;;;;;;;123.60;56.63;;;;;;;;;;5052972;28;20029;-51
2021/11/13 08:15:39;;;;;;;121.60;55.63;;;;;;;;;;5052996;28;20025;-50
2021/11/13 08:18:06;;;;;;;130.13;59.35;;;;;;;;;;5052815;28;20033;-49
2021/11/13 08:20:32;;;;;;;131.20;57.08;;;;;;;;;;5052665;28;20066;-52
2021/11/13 08:22:58;;;;;;;121.72;57.00;;;;;;;;;;5052680;28;20128;-51
2021/11/13 08:25:25;;;;;;;117.10;52.35;;;;;;;;;;5052090;28;20027;-51
2021/11/13 08:27:51;;;;;;;116.00;56.67;;;;;;;;;;5051213;28;20082;-50
2021/11/13 08:30:18;;;;;;;126.68;60.38;;;;;;;;;;5051378;28;20468;-50
2021/11/13 08:32:45;;;;;;;136.90;62.78;;;;;;;;;;5051471;28;20041;-51
2021/11/13 08:35:11;;;;;;;123.85;59.92;;;;;;;;;;5051443;28;20099;-51
2021/11/13 08:37:39;;;;;;;120.53;59.08;;;;;;;;;;5051218;28;20032;-53
2021/11/13 08:40:09;;;;;;;120.65;58.45;;;;;;;;;;5051266;28;20025;-51
2021/11/13 08:42:35;;;;;;;116.05;57.30;;;;;;;;;;5054810;28;20025;-51
2021/11/13 08:45:02;;;;;;;123.45;57.40;;;;;;;;;;5055120;28;20021;-50
2021/11/13 08:47:28;;;;;;;148.13;66.85;;;;;;;;;;5055193;28;20017;-50
2021/11/13 08:49:56;;;;;;;151.60;72.13;;;;;;;;;;5054810;28;20053;-51
2021/11/13 08:52:24;;;;;;;132.73;59.70;;;;;;;;;;5052556;28;20032;-51
2021/11/13 08:54:51;;;;;;;155.43;69.45;;;;;;;;;;5054906;28;20032;-51
2021/11/13 08:57:17;;;;;;;128.55;63.63;;;;;;;;;;5052047;28;20025;-52
2021/11/13 08:59:44;;;;;;;132.88;66.30;;;;;;;;;;5054871;28;20365;-49
2021/11/13 09:02:15;;;;;;;140.65;68.80;;;;;;;;;;5055588;28;20492;-49
2021/11/13 09:04:42;;;;;;;133.40;62.08;;;;;;;;;;5053584;28;20028;-53
2021/11/13 09:07:09;;;;;;;139.10;68.13;;;;;;;;;;5055469;28;20031;-50
2021/11/13 09:09:37;;;;;;;123.93;62.95;;;;;;;;;;5055398;28;20468;-50
2021/11/13 09:12:04;;;;;;;112.55;56.20;;;;;;;;;;5055148;28;20469;-50
2021/11/13 09:14:33;;;;;;;132.05;63.38;;;;;;;;;;5054795;28;20021;-49
2021/11/13 09:17:00;;;;;;;177.43;88.28;;;;;;;;;;5054841;28;20028;-49
2021/11/13 09:19:26;;;;;;;154.43;72.97;;;;;;;;;;5054450;28;20369;-50
2021/11/13 09:21:52;;;;;;;128.38;59.70;;;;;;;;;;5054418;28;20734;-53
2021/11/13 09:24:19;;;;;;;145.80;75.53;;;;;;;;;;5053180;28;20059;-53
2021/11/13 09:26:45;;;;;;;110.88;54.00;;;;;;;;;;5054258;28;20391;-51
2021/11/13 09:29:12;;;;;;;127.65;61.60;;;;;;;;;;5054484;28;20031;-50
2021/11/13 09:31:43;;;;;;;106.78;52.83;;;;;;;;;;5051640;28;20025;-50
2021/11/13 09:34:11;;;;;;;117.47;58.83;;;;;;;;;;5054396;28;20017;-52
2021/11/13 09:36:38;;;;;;;117.95;57.45;;;;;;;;;;5051480;28;20024;-48
2021/11/13 09:39:04;;;;;;;145.13;73.13;;;;;;;;;;5054149;28;20025;-50
2021/11/13 09:41:30;;;;;;;100.50;52.58;;;;;;;;;;5054361;28;20013;-50
2021/11/13 09:43:57;;;;;;;100.63;53.22;;;;;;;;;;5054052;28;20077;-50
2021/11/13 09:46:23;;;;;;;108.55;53.03;;;;;;;;;;5054137;28;20025;-51
2021/11/13 09:48:53;;;;;;;105.15;54.22;;;;;;;;;;5054170;28;20017;-51
2021/11/13 09:51:21;;;;;;;105.47;51.08;;;;;;;;;;5050864;28;20049;-48
2021/11/13 09:53:47;;;;;;;112.50;55.13;;;;;;;;;;5053684;28;20104;-49
2021/11/13 09:56:14;;;;;;;108.20;53.22;;;;;;;;;;5053855;28;20025;-49
2021/11/13 09:58:40;;;;;;;108.50;54.88;;;;;;;;;;5053776;28;20021;-50
2021/11/13 10:01:06;;;;;;;124.38;61.22;;;;;;;;;;5053863;28;20378;-49
2021/11/13 10:03:34;;;;;;;118.07;59.13;;;;;;;;;;5053839;28;20064;-49
2021/11/13 10:06:04;;;;;;;115.28;57.10;;;;;;;;;;5051759;28;20424;-50
2021/11/13 10:08:30;;;;;;;113.70;59.20;;;;;;;;;;5055116;28;20032;-50
2021/11/13 10:11:01;;;;;;;113.30;54.80;;;;;;;;;;5055101;28;20024;-51
2021/11/13 10:13:32;;;;;;;119.15;58.40;;;;;;;;;;5054909;28;20043;-49
2021/11/13 10:16:08;;;;;;;127.03;58.95;;;;;;;;;;5054859;28;20473;-50
2021/11/13 10:18:47;;;;;;;115.70;60.78;;;;;;;;;;5054635;28;20041;-50
2021/11/13 10:21:24;;;;;;;123.57;59.15;;;;;;;;;;5054662;28;20021;-50
2021/11/13 10:23:56;;;;;;;123.97;58.97;;;;;;;;;;5054691;28;20111;-50
2021/11/13 10:26:34;;;;;;;124.03;58.50;;;;;;;;;;5054580;28;20107;-50
2021/11/13 10:29:11;;;;;;;117.80;55.83;;;;;;;;;;5054725;28;20017;-49
2021/11/13 10:31:40;;;;;;;122.50;57.70;;;;;;;;;;5054602;28;20029;-50
2021/11/13 10:34:08;;;;;;;125.97;59.33;;;;;;;;;;5054104;28;20021;-50
2021/11/13 10:36:36;;;;;;;123.78;58.85;;;;;;;;;;5054045;28;20096;-49
2021/11/13 10:39:10;;;;;;;126.32;56.78;;;;;;;;;;5053622;28;20065;-49
2021/11/13 10:41:59;;;;;;;115.72;55.00;;;;;;;;;;5053803;28;20095;-50
2021/11/13 10:44:30;;;;;;;121.38;56.53;;;;;;;;;;5011940;28;20470;-51
2021/11/13 10:47:13;;;;;;;129.45;62.50;;;;;;;;;;5011936;28;20033;-50
2021/11/13 10:49:42;;;;;;;142.02;68.28;;;;;;;;;;5011861;28;20030;-50
2021/11/13 10:52:09;;;;;;;140.18;62.92;;;;;;;;;;5009307;28;20131;-50
2021/11/13 10:54:36;;;;;;;123.85;57.20;;;;;;;;;;5011734;28;20025;-50
2021/11/13 10:57:05;;;;;;;139.30;58.50;;;;;;;;;;5011668;28;20501;-50
2021/11/13 10:59:36;;;;;;;163.80;78.65;;;;;;;;;;4995206;28;20042;-51
2021/11/13 11:02:05;;;;;;;151.00;70.10;;;;;;;;;;5011502;28;20026;-51
2021/11/13 11:04:34;;;;;;;153.32;74.10;;;;;;;;;;5010592;28;20049;-51
2021/11/13 11:07:06;;;;;;;134.90;59.55;;;;;;;;;;5011130;28;20037;-50
2021/11/13 11:09:34;;;;;;;119.07;58.33;;;;;;;;;;5008855;28;20034;-49
2021/11/13 11:12:11;;;;;;;130.48;62.78;;;;;;;;;;5012063;28;20037;-50
2021/11/13 11:14:38;;;;;;;132.82;65.00;;;;;;;;;;5012262;28;20030;-49
2021/11/13 11:17:06;;;;;;;141.68;67.20;;;;;;;;;;5011981;28;20438;-49
2021/11/13 11:19:33;;;;;;;133.32;61.42;;;;;;;;;;5011690;28;20497;-50
2021/11/13 11:22:20;;;;;;;142.70;66.60;;;;;;;;;;5040961;28;20086;-49
2021/11/13 11:24:56;;;;;;;130.30;61.00;;;;;;;;;;5053550;28;20075;-48
2021/11/13 11:27:27;;;;;;;132.20;63.95;;;;;;;;;;5053423;28;20025;-50
2021/11/13 11:29:54;;;;;;;142.60;69.45;;;;;;;;;;5053414;28;20071;-49
2021/11/13 11:32:23;;;;;;;149.23;71.20;;;;;;;;;;5053354;28;20032;-48
2021/11/13 11:34:50;;;;;;;136.20;64.32;;;;;;;;;;5053319;28;20074;-48
2021/11/13 11:37:25;;;;;;;147.70;70.60;;;;;;;;;;5053345;28;20013;-47
2021/11/13 11:39:56;;;;;;;140.25;66.15;;;;;;;;;;5052411;28;20171;-49
2021/11/13 11:42:22;;;;;;;131.13;63.80;;;;;;;;;;5053201;28;20023;-51
2021/11/13 11:44:49;;;;;;;145.70;65.03;;;;;;;;;;5052955;28;20021;-50
2021/11/13 11:47:16;;;;;;;157.70;76.22;;;;;;;;;;5053166;28;20021;-51
2021/11/13 11:49:44;;;;;;;147.02;67.85;;;;;;;;;;5052988;28;20029;-50
2021/11/13 11:52:11;;;;;;;140.38;67.68;;;;;;;;;;5052904;28;20045;-51
2021/11/13 11:54:37;;;;;;;135.00;64.10;;;;;;;;;;5053170;28;20025;-52
2021/11/13 11:57:03;;;;;;;150.00;72.28;;;;;;;;;;5052951;28;20044;-49
2021/11/13 11:59:30;;;;;;;190.95;99.05;;;;;;;;;;5052747;28;20124;-48
2021/11/13 12:02:08;;;;;;;124.03;59.55;;;;;;;;;;5045898;28;20031;-52
2021/11/13 12:04:34;;;;;;;131.35;65.45;;;;;;;;;;5026234;28;20021;-52
2021/11/13 12:07:00;;;;;;;143.95;70.57;;;;;;;;;;5025021;28;20135;-52
2021/11/13 12:09:27;;;;;;;154.73;74.90;;;;;;;;;;5025481;28;20039;-52
2021/11/13 12:12:12;;;;;;;150.50;68.97;;;;;;;;;;5025338;28;20021;-51
2021/11/13 12:14:39;;;;;;;130.65;65.30;;;;;;;;;;5026092;28;20025;-51
2021/11/13 12:17:21;;;;;;;157.85;80.53;;;;;;;;;;5029563;28;20056;-53
2021/11/13 12:20:15;;;;;;;138.73;70.60;;;;;;;;;;5029659;28;20033;-51
2021/11/13 12:22:42;;;;;;;164.63;79.20;;;;;;;;;;5025787;28;20041;-52
2021/11/13 12:25:15;;;;;;;142.10;69.97;;;;;;;;;;5029516;28;20167;-53
2021/11/13 12:27:42;;;;;;;131.27;62.80;;;;;;;;;;5029297;28;20033;-56
2021/11/13 12:30:12;;;;;;;137.65;64.80;;;;;;;;;;5029854;28;20128;-53
2021/11/13 12:32:38;;;;;;;167.50;76.40;;;;;;;;;;5029184;28;20559;-54
2021/11/13 12:35:13;;;;;;;156.52;78.05;;;;;;;;;;5029528;28;20017;-54
2021/11/13 12:37:39;;;;;;;137.05;66.22;;;;;;;;;;5029541;28;20463;-53
2021/11/13 12:40:05;;;;;;;140.25;70.10;;;;;;;;;;5028647;28;20041;-53
2021/11/13 12:42:31;;;;;;;125.70;58.92;;;;;;;;;;5028898;28;20529;-54
2021/11/13 12:44:59;;;;;;;130.40;63.65;;;;;;;;;;5028658;28;20496;-54
2021/11/13 12:47:25;;;;;;;136.18;66.80;;;;;;;;;;5028840;28;20021;-54
2021/11/13 12:49:55;;;;;;;138.82;64.88;;;;;;;;;;5028287;28;20025;-54
2021/11/13 12:52:21;;;;;;;131.38;63.40;;;;;;;;;;5028597;28;20160;-54
2021/11/13 12:54:47;;;;;;;138.68;66.43;;;;;;;;;;5028800;28;20055;-54
2021/11/13 12:57:46;;;;;;;152.98;74.65;;;;;;;;;;5027788;28;20045;-55
2021/11/13 13:00:15;;;;;;;151.23;74.38;;;;;;;;;;4987410;28;20057;-54
2021/11/13 13:02:41;;;;;;;146.10;75.53;;;;;;;;;;4987451;28;20077;-54
2021/11/13 13:05:13;;;;;;;128.63;62.80;;;;;;;;;;4987725;28;20542;-53
2021/11/13 13:07:42;;;;;;;148.77;73.35;;;;;;;;;;4987702;28;20037;-53
2021/11/13 13:10:10;;;;;;;147.10;71.25;;;;;;;;;;4987475;28;20026;-54
2021/11/13 13:12:41;;;;;;;128.32;63.25;;;;;;;;;;4987089;28;20131;-53
2021/11/13 13:15:11;;;;;;;149.65;70.05;;;;;;;;;;4987401;28;20049;-53
2021/11/13 13:17:38;;;;;;;126.80;62.25;;;;;;;;;;4987268;28;20169;-53
2021/11/13 13:20:09;;;;;;;149.30;73.47;;;;;;;;;;4987050;28;20507;-53
2021/11/13 13:22:35;;;;;;;136.85;67.93;;;;;;;;;;4987377;28;20050;-53
2021/11/13 13:25:04;;;;;;;145.25;67.72;;;;;;;;;;4987299;28;20123;-51
2021/11/13 13:27:30;;;;;;;144.05;64.57;;;;;;;;;;4986304;28;20624;-51
2021/11/13 13:30:00;;;;;;;127.88;61.45;;;;;;;;;;4986845;28;20038;-51
2021/11/13 13:32:27;;;;;;;120.45;58.17;;;;;;;;;;4987534;28;20053;-50
2021/11/13 13:35:19;;;;;;;131.52;63.22;;;;;;;;;;4990119;28;20505;-51
2021/11/13 13:37:51;;;;;;;116.45;59.03;;;;;;;;;;5027662;28;20932;-53
2021/11/13 13:40:22;;;;;;;127.00;57.88;;;;;;;;;;5027183;28;20041;-51
2021/11/13 13:42:49;;;;;;;125.43;62.45;;;;;;;;;;5027928;28;20028;-52
2021/11/13 13:45:15;;;;;;;131.65;61.67;;;;;;;;;;5027394;28;20037;-52
2021/11/13 13:47:44;;;;;;;122.05;60.60;;;;;;;;;;5027888;28;20039;-51
2021/11/13 13:50:10;;;;;;;136.90;69.32;;;;;;;;;;5026677;28;20047;-53
2021/11/13 13:52:41;;;;;;;124.55;59.83;;;;;;;;;;5027437;28;20059;-52
2021/11/13 13:55:13;;;;;;;125.90;58.10;;;;;;;;;;5027348;28;20018;-51
2021/11/13 13:57:39;;;;;;;;;;;;;;;;;;5027667;28;20060;-51
2021/11/13 14:00:07;;;;;;;139.13;62.67;;;;;;;;;;5027551;28;19920;-51
2021/11/13 14:02:34;;;;;;;126.30;60.78;;;;;;;;;;5027092;28;20478;-52
2021/11/13 14:05:01;;;;;;;130.25;62.28;;;;;;;;;;5025386;28;20041;-51
2021/11/13 14:07:29;;;;;;;133.27;63.03;;;;;;;;;;5027353;28;20028;-51
2021/11/13 14:09:59;;;;;;;137.15;65.85;;;;;;;;;;5027697;28;20566;-51
2021/11/13 14:12:25;;;;;;;140.02;64.70;;;;;;;;;;5026848;28;20132;-51
2021/11/13 14:14:54;;;;;;;140.52;67.72;;;;;;;;;;5027292;28;20512;-51